createdAt,value
2017-11-21T00:02:17.611Z,100.00
2017-11-21T00:04:45.679Z,100.00
2017-11-21T00:07:13.764Z,100.00
2017-11-21T00:09:41.606Z,100.00
2017-11-21T00:12:09.222Z,100.00
2017-11-21T00:14:36.756Z,100.00
2017-11-21T00:17:04.347Z,100.00
2017-11-21T00:19:32.286Z,100.00
2017-11-21T00:21:59.885Z,100.00
2017-11-21T00:24:27.451Z,100.00
2017-11-21T00:26:55.120Z,100.00
2017-11-21T00:29:22.676Z,100.00
2017-11-21T00:31:50.205Z,100.00
2017-11-21T00:34:17.787Z,100.00
2017-11-21T00:36:45.672Z,100.00
2017-11-21T00:39:13.206Z,100.00
2017-11-21T00:41:41.102Z,100.00
2017-11-21T00:44:09.062Z,100.00
2017-11-21T00:46:36.649Z,100.00
2017-11-21T00:49:04.202Z,100.00
2017-11-21T00:51:31.778Z,100.00
2017-11-21T00:53:59.303Z,100.00
2017-11-21T00:56:27.041Z,100.00
2017-11-21T00:58:54.580Z,100.00
2017-11-21T01:01:22.147Z,100.00
2017-11-21T01:03:49.677Z,100.00
2017-11-21T01:06:17.247Z,100.00
2017-11-21T01:08:44.771Z,100.00
2017-11-21T01:11:12.298Z,100.00
2017-11-21T01:13:39.980Z,100.00
2017-11-21T01:16:07.538Z,100.00
2017-11-21T01:18:35.066Z,100.00
2017-11-21T01:21:02.645Z,100.00
2017-11-21T01:23:30.161Z,100.00
2017-11-21T01:25:57.690Z,100.00
2017-11-21T01:28:25.256Z,100.00
2017-11-21T01:30:52.774Z,100.00
2017-11-21T01:33:20.302Z,100.00
2017-11-21T01:35:47.863Z,100.00
2017-11-21T01:38:15.395Z,100.00
2017-11-21T01:40:42.909Z,100.00
2017-11-21T01:43:10.463Z,100.00
2017-11-21T01:45:37.985Z,100.00
2017-11-21T01:48:05.534Z,100.00
2017-11-21T01:50:33.048Z,100.00
2017-11-21T01:53:00.606Z,100.00
2017-11-21T01:55:28.135Z,100.00
2017-11-21T01:57:55.716Z,100.00
2017-11-21T02:00:23.310Z,100.00
2017-11-21T02:03:02.614Z,100.00
2017-11-21T02:05:30.142Z,100.00
2017-11-21T02:07:57.678Z,100.00
2017-11-21T02:10:25.226Z,100.00
2017-11-21T02:12:52.754Z,100.00
2017-11-21T02:15:20.306Z,100.00
2017-11-21T02:17:47.825Z,100.00
2017-11-21T02:20:15.396Z,100.00
2017-11-21T02:22:42.942Z,100.00
2017-11-21T02:25:10.532Z,100.00
2017-11-21T02:27:38.069Z,100.00
2017-11-21T02:30:05.598Z,100.00
2017-11-21T02:32:33.165Z,100.00
2017-11-21T02:35:00.719Z,100.00
2017-11-21T02:37:28.314Z,100.00
2017-11-21T02:39:55.855Z,100.00
2017-11-21T02:42:23.406Z,100.00
2017-11-21T02:44:50.979Z,100.00
2017-11-21T02:47:18.588Z,100.00
2017-11-21T02:49:46.133Z,100.00
2017-11-21T02:52:13.703Z,100.00
2017-11-21T02:54:41.289Z,100.00
2017-11-21T02:57:08.824Z,100.00
2017-11-21T02:59:36.390Z,100.00
2017-11-21T03:02:03.922Z,100.00
2017-11-21T03:04:31.625Z,100.00
2017-11-21T03:06:59.149Z,100.00
2017-11-21T03:09:26.674Z,100.00
2017-11-21T03:11:54.252Z,100.00
2017-11-21T03:14:21.843Z,100.00
2017-11-21T03:16:49.377Z,100.00
2017-11-21T03:19:16.910Z,100.00
2017-11-21T03:21:56.203Z,100.00
2017-11-21T03:24:35.703Z,100.00
2017-11-21T03:27:11.254Z,100.00
2017-11-21T03:29:38.981Z,100.00
2017-11-21T03:32:06.528Z,100.00
2017-11-21T03:34:34.082Z,100.00
2017-11-21T03:37:01.818Z,100.00
2017-11-21T03:39:29.346Z,100.00
2017-11-21T03:41:56.874Z,100.00
2017-11-21T03:44:24.479Z,100.00
2017-11-21T03:46:52.011Z,100.00
2017-11-21T03:49:19.541Z,100.00
2017-11-21T03:51:47.110Z,100.00
2017-11-21T03:54:14.713Z,100.00
2017-11-21T03:56:42.238Z,100.00
2017-11-21T03:59:09.774Z,100.00
2017-11-21T04:01:37.327Z,100.00
2017-11-21T04:04:04.934Z,100.00
2017-11-21T04:06:32.460Z,100.00
2017-11-21T04:08:59.981Z,100.00
2017-11-21T04:11:27.554Z,100.00
2017-11-21T04:13:55.092Z,100.00
2017-11-21T04:16:22.768Z,100.00
2017-11-21T04:18:50.292Z,100.00
2017-11-21T04:21:17.822Z,100.00
2017-11-21T04:23:45.422Z,100.00
2017-11-21T04:26:12.956Z,100.00
2017-11-21T04:28:40.490Z,100.00
2017-11-21T04:31:08.214Z,100.00
2017-11-21T04:33:35.770Z,100.00
2017-11-21T04:36:03.305Z,100.00
2017-11-21T04:38:30.947Z,100.00
2017-11-21T04:40:58.522Z,100.00
2017-11-21T04:43:26.046Z,100.00
2017-11-21T04:45:53.635Z,100.00
2017-11-21T04:48:21.168Z,100.00
2017-11-21T04:50:48.703Z,100.00
2017-11-21T04:53:16.292Z,100.00
2017-11-21T04:55:43.830Z,100.00
2017-11-21T04:58:11.398Z,100.00
2017-11-21T05:00:39.022Z,100.00
2017-11-21T05:03:06.562Z,100.00
2017-11-21T05:05:34.098Z,100.00
2017-11-21T05:08:01.701Z,100.00
2017-11-21T05:10:29.261Z,100.00
2017-11-21T05:12:56.790Z,100.00
2017-11-21T05:15:24.400Z,100.00
2017-11-21T05:17:51.928Z,100.00
2017-11-21T05:20:19.500Z,100.00
2017-11-21T05:22:47.366Z,100.00
2017-11-21T05:25:14.903Z,100.00
2017-11-21T05:27:42.444Z,100.00
2017-11-21T05:30:10.042Z,100.00
2017-11-21T05:32:49.340Z,100.00
2017-11-21T05:35:16.934Z,100.00
2017-11-21T05:37:44.462Z,100.00
2017-11-21T05:40:11.994Z,100.00
2017-11-21T05:42:39.728Z,100.00
2017-11-21T05:45:07.257Z,100.00
2017-11-21T05:47:34.799Z,100.00
2017-11-21T05:50:02.435Z,100.00
2017-11-21T05:52:29.975Z,100.00
2017-11-21T05:54:57.511Z,100.00
2017-11-21T05:57:25.092Z,100.00
2017-11-21T05:59:52.613Z,100.00
2017-11-21T06:02:20.149Z,100.00
2017-11-21T06:04:47.875Z,100.00
2017-11-21T06:07:15.396Z,100.00
2017-11-21T06:09:42.917Z,100.00
2017-11-21T06:12:10.465Z,100.00
2017-11-21T06:14:38.005Z,100.00
2017-11-21T06:17:05.563Z,100.00
2017-11-21T06:19:33.094Z,100.00
2017-11-21T06:22:00.831Z,100.00
2017-11-21T06:24:28.394Z,100.00
2017-11-21T06:26:55.931Z,100.00
2017-11-21T06:29:23.519Z,100.00
2017-11-21T06:31:51.045Z,100.00
2017-11-21T06:34:18.578Z,100.00
2017-11-21T06:36:46.313Z,100.00
2017-11-21T06:39:13.885Z,99.93
2017-11-21T06:41:41.415Z,100.00
2017-11-21T06:44:09.019Z,100.00
2017-11-21T06:46:36.551Z,100.00
2017-11-21T06:49:04.089Z,100.00
2017-11-21T06:51:31.871Z,100.00
2017-11-21T06:53:59.397Z,99.74
2017-11-21T06:56:26.922Z,99.50
2017-11-21T06:58:54.581Z,100.00
2017-11-21T07:01:22.110Z,100.00
2017-11-21T07:03:49.650Z,100.00
2017-11-21T07:06:17.406Z,100.00
2017-11-21T07:08:44.965Z,100.00
2017-11-21T07:11:12.483Z,100.00
2017-11-21T07:13:40.039Z,100.00
2017-11-21T07:16:07.589Z,100.00
2017-11-21T07:18:35.127Z,100.00
2017-11-21T07:21:02.714Z,100.00
2017-11-21T07:23:30.250Z,100.00
2017-11-21T07:25:57.778Z,100.00
2017-11-21T07:28:25.475Z,100.00
2017-11-21T07:30:53.890Z,100.00
2017-11-21T07:33:21.438Z,100.00
2017-11-21T07:35:49.018Z,100.00
2017-11-21T07:38:16.541Z,100.00
2017-11-21T07:40:44.070Z,100.00
2017-11-21T07:43:11.657Z,100.00
2017-11-21T07:45:39.189Z,100.00
2017-11-21T07:48:06.718Z,100.00
2017-11-21T07:50:34.270Z,100.00
2017-11-21T07:53:01.832Z,100.00
2017-11-21T07:55:29.417Z,100.00
2017-11-21T07:57:56.965Z,100.00
2017-11-21T08:00:24.509Z,100.00
2017-11-21T08:02:52.088Z,100.00
2017-11-21T08:05:19.670Z,100.00
2017-11-21T08:07:47.206Z,100.00
2017-11-21T08:10:14.920Z,100.00
2017-11-21T08:12:42.458Z,100.00
2017-11-21T08:15:10.011Z,100.00
2017-11-21T08:17:37.594Z,100.00
2017-11-21T08:20:05.258Z,100.00
2017-11-21T08:22:32.793Z,100.00
2017-11-21T08:25:00.338Z,100.00
2017-11-21T08:27:27.912Z,100.00
2017-11-21T08:29:55.438Z,100.00
2017-11-21T08:32:22.985Z,100.00
2017-11-21T08:34:50.844Z,100.00
2017-11-21T08:37:18.396Z,100.00
2017-11-21T08:39:45.930Z,100.00
2017-11-21T08:42:13.691Z,100.00
2017-11-21T08:44:41.226Z,100.00
2017-11-21T08:47:08.762Z,100.00
2017-11-21T08:49:36.502Z,100.00
2017-11-21T08:52:04.021Z,100.00
2017-11-21T08:54:31.559Z,100.00
2017-11-21T08:56:59.122Z,100.00
2017-11-21T08:59:26.654Z,100.00
2017-11-21T09:01:54.238Z,100.00
2017-11-21T09:04:21.761Z,100.00
2017-11-21T09:06:49.292Z,100.00
2017-11-21T09:09:16.978Z,100.00
2017-11-21T09:11:44.501Z,100.00
2017-11-21T09:14:12.054Z,100.00
2017-11-21T09:16:39.799Z,100.00
2017-11-21T09:19:07.344Z,100.00
2017-11-21T09:21:34.880Z,100.00
2017-11-21T09:24:02.617Z,100.00
2017-11-21T09:26:30.156Z,100.00
2017-11-21T09:28:57.682Z,100.00
2017-11-21T09:31:25.246Z,100.00
2017-11-21T09:33:52.805Z,100.00
2017-11-21T09:36:20.503Z,100.00
2017-11-21T09:38:48.038Z,100.00
2017-11-21T09:41:15.614Z,100.00
2017-11-21T09:43:43.201Z,100.00
2017-11-21T09:46:10.724Z,100.00
2017-11-21T09:48:38.262Z,100.00
2017-11-21T09:51:05.826Z,100.00
2017-11-21T09:53:33.349Z,100.00
2017-11-21T09:56:00.910Z,99.86
2017-11-21T09:58:28.454Z,100.00
2017-11-21T10:00:56.045Z,100.00
2017-11-21T10:03:23.573Z,99.82
2017-11-21T10:05:51.092Z,100.00
2017-11-21T10:08:18.649Z,100.00
2017-11-21T10:10:46.240Z,100.00
2017-11-21T10:13:13.790Z,100.00
2017-11-21T10:15:41.320Z,100.00
2017-11-21T10:18:09.017Z,100.00
2017-11-21T10:20:36.559Z,99.63
2017-11-21T10:23:04.090Z,100.00
2017-11-21T10:25:31.753Z,99.84
2017-11-21T10:27:59.303Z,99.92
2017-11-21T10:30:26.922Z,100.00
2017-11-21T10:32:54.661Z,100.00
2017-11-21T10:35:22.194Z,99.39
2017-11-21T10:37:49.730Z,100.00
2017-11-21T10:40:17.506Z,100.00
2017-11-21T10:42:45.053Z,100.00
2017-11-21T10:45:12.580Z,100.00
2017-11-21T10:47:40.125Z,99.95
2017-11-21T10:50:07.704Z,100.00
2017-11-21T10:52:35.245Z,99.83
2017-11-21T10:55:02.836Z,99.41
2017-11-21T10:57:30.387Z,98.60
2017-11-21T10:59:57.946Z,99.29
2017-11-21T11:02:25.518Z,100.00
2017-11-21T11:04:53.335Z,100.00
2017-11-21T11:07:20.884Z,100.00
2017-11-21T11:09:48.416Z,100.00
2017-11-21T11:12:16.009Z,99.32
2017-11-21T11:14:43.563Z,99.73
2017-11-21T11:17:11.119Z,99.41
2017-11-21T11:19:38.737Z,98.74
2017-11-21T11:22:06.281Z,98.36
2017-11-21T11:24:33.814Z,98.56
2017-11-21T11:27:01.438Z,98.87
2017-11-21T11:29:28.999Z,98.91
2017-11-21T11:31:56.550Z,99.61
2017-11-21T11:34:24.304Z,97.79
2017-11-21T11:36:51.841Z,98.13
2017-11-21T11:39:19.377Z,98.03
2017-11-21T11:41:46.992Z,96.30
2017-11-21T11:44:14.530Z,98.50
2017-11-21T11:46:42.100Z,98.46
2017-11-21T11:49:09.837Z,99.08
2017-11-21T11:51:37.353Z,98.70
2017-11-21T11:54:04.895Z,98.88
2017-11-21T11:56:32.458Z,98.91
2017-11-21T11:58:59.993Z,99.46
2017-11-21T12:01:27.651Z,99.45
2017-11-21T12:03:55.208Z,99.64
2017-11-21T12:06:22.804Z,99.73
2017-11-21T12:08:50.353Z,99.63
2017-11-21T12:11:18.097Z,99.37
2017-11-21T12:13:45.630Z,99.32
2017-11-21T12:16:13.185Z,99.40
2017-11-21T12:18:40.788Z,99.06
2017-11-21T12:21:08.342Z,98.35
2017-11-21T12:23:35.899Z,98.62
2017-11-21T12:26:03.501Z,98.70
2017-11-21T12:28:31.036Z,98.77
2017-11-21T12:30:58.576Z,98.54
2017-11-21T12:33:26.166Z,97.80
2017-11-21T12:35:53.706Z,98.62
2017-11-21T12:38:21.253Z,98.98
2017-11-21T12:40:48.866Z,98.89
2017-11-21T12:43:16.414Z,99.15
2017-11-21T12:45:44.025Z,99.45
2017-11-21T12:48:11.912Z,99.23
2017-11-21T12:50:39.464Z,98.11
2017-11-21T12:53:07.014Z,99.08
2017-11-21T12:55:34.565Z,98.63
2017-11-21T12:58:02.159Z,99.11
2017-11-21T13:00:29.702Z,100.00
2017-11-21T13:02:57.251Z,100.00
2017-11-21T13:05:24.849Z,100.00
2017-11-21T13:07:52.399Z,100.00
2017-11-21T13:10:19.980Z,99.95
2017-11-21T13:12:47.654Z,100.00
2017-11-21T13:15:15.253Z,100.00
2017-11-21T13:17:42.825Z,100.00
2017-11-21T13:20:10.566Z,100.00
2017-11-21T13:22:38.094Z,100.00
2017-11-21T13:25:05.668Z,100.00
2017-11-21T13:27:33.299Z,100.00
2017-11-21T13:30:00.851Z,100.00
2017-11-21T13:32:28.389Z,100.00
2017-11-21T13:34:56.023Z,100.00
2017-11-21T13:37:23.584Z,100.00
2017-11-21T13:39:51.138Z,100.00
2017-11-21T13:42:18.926Z,100.00
2017-11-21T13:44:46.562Z,100.00
2017-11-21T13:47:14.130Z,100.00
2017-11-21T13:49:41.837Z,100.00
2017-11-21T13:52:09.428Z,100.00
2017-11-21T13:54:36.961Z,100.00
2017-11-21T13:57:04.677Z,100.00
2017-11-21T13:59:32.209Z,100.00
2017-11-21T14:01:59.733Z,100.00
2017-11-21T14:04:27.333Z,100.00
2017-11-21T14:06:54.922Z,100.00
2017-11-21T14:09:22.566Z,100.00
2017-11-21T14:11:50.132Z,100.00
2017-11-21T14:14:17.745Z,100.00
2017-11-21T14:16:45.303Z,100.00
2017-11-21T14:19:12.856Z,100.00
2017-11-21T14:21:40.620Z,100.00
2017-11-21T14:24:08.176Z,100.00
2017-11-21T14:26:35.734Z,100.00
2017-11-21T14:29:03.430Z,100.00
2017-11-21T14:31:30.966Z,100.00
2017-11-21T14:33:58.525Z,100.00
2017-11-21T14:36:27.269Z,100.00
2017-11-21T14:38:54.822Z,100.00
2017-11-21T14:41:22.390Z,100.00
2017-11-21T14:43:49.959Z,100.00
2017-11-21T14:46:17.506Z,100.00
2017-11-21T14:48:45.237Z,100.00
2017-11-21T14:51:12.772Z,100.00
2017-11-21T14:53:40.325Z,100.00
2017-11-21T14:56:07.959Z,100.00
2017-11-21T14:58:35.514Z,100.00
2017-11-21T15:01:03.062Z,100.00
2017-11-21T15:03:30.630Z,100.00
2017-11-21T15:05:58.175Z,100.00
2017-11-21T15:08:25.928Z,100.00
2017-11-21T15:10:53.490Z,100.00
2017-11-21T15:13:21.053Z,100.00
2017-11-21T15:15:48.663Z,100.00
2017-11-21T15:18:16.216Z,100.00
2017-11-21T15:20:43.735Z,100.00
2017-11-21T15:23:11.471Z,100.00
2017-11-21T15:25:39.029Z,100.00
2017-11-21T15:28:06.586Z,100.00
2017-11-21T15:30:34.169Z,100.00
2017-11-21T15:33:01.698Z,100.00
2017-11-21T15:35:29.252Z,100.00
2017-11-21T15:37:56.827Z,100.00
2017-11-21T15:40:24.371Z,100.00
2017-11-21T15:42:51.934Z,100.00
2017-11-21T15:45:19.554Z,100.00
2017-11-21T15:47:47.110Z,100.00
2017-11-21T15:50:14.629Z,100.00
2017-11-21T15:52:42.291Z,100.00
2017-11-21T15:55:09.823Z,100.00
2017-11-21T15:57:37.364Z,100.00
2017-11-21T16:00:04.962Z,100.00
2017-11-21T16:02:32.495Z,100.00
2017-11-21T16:05:00.016Z,100.00
2017-11-21T16:07:27.569Z,100.00
2017-11-21T16:09:55.094Z,100.00
2017-11-21T16:12:22.705Z,100.00
2017-11-21T16:14:50.229Z,99.71
2017-11-21T16:17:17.767Z,100.00
2017-11-21T16:19:45.334Z,100.00
2017-11-21T16:22:12.874Z,100.00
2017-11-21T16:24:40.450Z,100.00
2017-11-21T16:27:08.172Z,100.00
2017-11-21T16:29:35.714Z,100.00
2017-11-21T16:32:03.245Z,100.00
2017-11-21T16:34:30.826Z,100.00
2017-11-21T16:36:58.434Z,100.00
2017-11-21T16:39:25.978Z,99.97
2017-11-21T16:41:53.497Z,99.77
2017-11-21T16:44:21.041Z,99.67
2017-11-21T16:46:48.634Z,100.00
2017-11-21T16:49:16.167Z,99.70
2017-11-21T16:51:43.697Z,100.00
2017-11-21T16:54:11.297Z,99.99
2017-11-21T16:56:38.814Z,99.33
2017-11-21T16:59:06.399Z,100.00
2017-11-21T17:01:34.003Z,99.76
2017-11-21T17:04:01.538Z,99.82
2017-11-21T17:06:29.068Z,99.79
2017-11-21T17:08:56.668Z,99.51
2017-11-21T17:11:24.222Z,99.67
2017-11-21T17:13:51.749Z,99.59
2017-11-21T17:16:19.415Z,99.32
2017-11-21T17:18:46.938Z,99.43
2017-11-21T17:21:14.462Z,99.01
2017-11-21T17:23:42.048Z,99.12
2017-11-21T17:26:09.579Z,98.52
2017-11-21T17:28:37.108Z,98.93
2017-11-21T17:31:04.681Z,98.73
2017-11-21T17:33:32.242Z,98.63
2017-11-21T17:35:59.784Z,98.29
2017-11-21T17:38:27.487Z,98.38
2017-11-21T17:40:55.018Z,98.10
2017-11-21T17:43:22.562Z,98.31
2017-11-21T17:45:50.230Z,98.26
2017-11-21T17:48:17.757Z,98.01
2017-11-21T17:50:45.277Z,97.12
2017-11-21T17:53:12.871Z,97.07
2017-11-21T17:55:40.417Z,96.80
2017-11-21T17:58:07.942Z,97.77
2017-11-21T18:00:35.632Z,97.32
2017-11-21T18:03:03.154Z,97.25
2017-11-21T18:05:30.761Z,96.87
2017-11-21T18:07:58.286Z,97.15
2017-11-21T18:10:25.834Z,96.66
2017-11-21T18:12:53.390Z,96.95
2017-11-21T18:15:20.975Z,96.98
2017-11-21T18:17:48.556Z,97.18
2017-11-21T18:20:16.102Z,97.21
2017-11-21T18:22:43.616Z,97.07
2017-11-21T18:25:11.373Z,96.74
2017-11-21T18:27:38.894Z,96.31
2017-11-21T18:30:06.417Z,96.41
2017-11-21T18:32:34.191Z,97.44
2017-11-21T18:35:01.717Z,96.98
2017-11-21T18:37:29.237Z,97.50
2017-11-21T18:39:56.794Z,96.77
2017-11-21T18:42:24.481Z,96.82
2017-11-21T18:44:52.001Z,97.18
2017-11-21T18:47:19.526Z,97.43
2017-11-21T18:49:47.249Z,97.45
2017-11-21T18:52:14.766Z,96.50
2017-11-21T18:54:42.289Z,96.05
2017-11-21T18:57:09.841Z,96.89
2017-11-21T18:59:37.366Z,97.06
2017-11-21T19:02:04.928Z,96.59
2017-11-21T19:04:32.469Z,96.49
2017-11-21T19:06:59.992Z,96.36
2017-11-21T19:09:27.546Z,96.91
2017-11-21T19:11:55.082Z,96.62
2017-11-21T19:14:22.630Z,97.21
2017-11-21T19:16:50.169Z,97.23
2017-11-21T19:19:17.878Z,96.85
2017-11-21T19:21:45.432Z,96.64
2017-11-21T19:24:12.978Z,96.99
2017-11-21T19:26:40.643Z,96.72
2017-11-21T19:29:08.174Z,96.07
2017-11-21T19:31:35.697Z,95.89
2017-11-21T19:34:03.263Z,95.59
2017-11-21T19:36:30.954Z,96.21
2017-11-21T19:38:58.478Z,95.91
2017-11-21T19:41:26.065Z,96.38
2017-11-21T19:43:53.627Z,95.71
2017-11-21T19:46:21.172Z,95.63
2017-11-21T19:48:48.780Z,95.64
2017-11-21T19:51:16.502Z,95.62
2017-11-21T19:53:44.032Z,95.14
2017-11-21T19:56:11.769Z,95.22
2017-11-21T19:58:39.307Z,94.98
2017-11-21T20:01:06.837Z,94.96
2017-11-21T20:03:34.407Z,94.70
2017-11-21T20:06:01.936Z,94.78
2017-11-21T20:08:29.639Z,95.03
2017-11-21T20:10:57.164Z,94.19
2017-11-21T20:13:24.690Z,95.36
2017-11-21T20:15:52.279Z,95.01
2017-11-21T20:18:19.805Z,95.20
2017-11-21T20:20:47.336Z,95.17
2017-11-21T20:23:15.081Z,95.00
2017-11-21T20:25:42.604Z,94.96
2017-11-21T20:28:10.145Z,95.17
2017-11-21T20:30:37.741Z,94.12
2017-11-21T20:33:05.270Z,94.00
2017-11-21T20:35:32.802Z,94.62
2017-11-21T20:38:00.403Z,94.52
2017-11-21T20:40:27.942Z,94.11
2017-11-21T20:42:55.483Z,94.99
2017-11-21T20:45:23.058Z,94.88
2017-11-21T20:47:50.806Z,95.08
2017-11-21T20:50:18.337Z,94.05
2017-11-21T20:52:45.954Z,94.75
2017-11-21T20:55:13.744Z,94.37
2017-11-21T20:57:41.279Z,94.08
2017-11-21T21:00:08.846Z,94.22
2017-11-21T21:02:36.404Z,93.66
2017-11-21T21:05:04.030Z,93.39
2017-11-21T21:07:31.553Z,94.05
2017-11-21T21:09:59.094Z,94.25
2017-11-21T21:12:26.654Z,94.60
2017-11-21T21:14:54.182Z,93.61
2017-11-21T21:17:21.766Z,94.06
2017-11-21T21:19:49.297Z,94.07
2017-11-21T21:22:16.822Z,95.08
2017-11-21T21:24:44.378Z,94.52
2017-11-21T21:27:23.854Z,94.96
2017-11-21T21:29:51.401Z,94.58
2017-11-21T21:32:18.930Z,94.98
2017-11-21T21:34:46.489Z,94.84
2017-11-21T21:37:14.023Z,95.05
2017-11-21T21:39:41.682Z,95.51
2017-11-21T21:42:09.210Z,94.86
2017-11-21T21:44:36.733Z,94.96
2017-11-21T21:47:04.462Z,95.00
2017-11-21T21:49:32.004Z,94.83
2017-11-21T21:51:59.551Z,94.87
2017-11-21T21:54:27.110Z,95.43
2017-11-21T21:56:54.689Z,95.66
2017-11-21T21:59:22.221Z,96.13
2017-11-21T22:01:49.755Z,95.41
2017-11-21T22:04:17.359Z,95.90
2017-11-21T22:06:44.919Z,95.27
2017-11-21T22:09:12.429Z,95.60
2017-11-21T22:11:40.175Z,95.54
2017-11-21T22:14:07.718Z,95.37
2017-11-21T22:16:35.247Z,95.12
2017-11-21T22:19:02.988Z,95.00
2017-11-21T22:21:30.527Z,95.16
2017-11-21T22:23:58.055Z,95.00
2017-11-21T22:26:25.636Z,94.90
2017-11-21T22:28:53.146Z,94.90
2017-11-21T22:31:20.678Z,96.06
2017-11-21T22:33:48.254Z,96.15
2017-11-21T22:36:15.777Z,96.15
2017-11-21T22:38:43.289Z,96.05
2017-11-21T22:41:10.947Z,95.64
2017-11-21T22:43:38.472Z,95.28
2017-11-21T22:46:05.997Z,94.70
2017-11-21T22:48:33.661Z,95.31
2017-11-21T22:51:01.203Z,95.92
2017-11-21T22:53:28.742Z,96.82
2017-11-21T22:55:56.491Z,96.30
2017-11-21T22:58:24.012Z,96.77
2017-11-21T23:00:51.542Z,96.55
2017-11-21T23:03:19.090Z,96.31
2017-11-21T23:05:46.795Z,96.15
2017-11-21T23:08:14.335Z,97.27
2017-11-21T23:10:41.874Z,95.98
2017-11-21T23:13:09.433Z,96.45
2017-11-21T23:15:36.999Z,97.25
2017-11-21T23:18:04.521Z,96.96
2017-11-21T23:20:32.219Z,97.02
2017-11-21T23:22:59.783Z,97.61
2017-11-21T23:25:27.310Z,97.85
2017-11-21T23:27:54.902Z,97.90
2017-11-21T23:30:22.446Z,98.27
2017-11-21T23:32:49.967Z,98.04
2017-11-21T23:35:17.552Z,97.96
2017-11-21T23:37:45.098Z,98.50
2017-11-21T23:40:12.629Z,98.36
2017-11-21T23:42:40.214Z,98.79
2017-11-21T23:45:07.787Z,98.48
2017-11-21T23:47:35.333Z,97.88
2017-11-21T23:50:02.881Z,97.66
2017-11-21T23:52:30.397Z,97.46
2017-11-21T23:54:57.950Z,97.88
2017-11-21T23:57:25.485Z,96.69
2017-11-21T23:59:53.067Z,96.75
